SANT/TUC METAR and TAF weather

Enter ICAO airport designator
Station Type Date Time Source
SANT METAR 2021/09/16 11:00 UTC NOAA

SANT 161100Z 36005KT 6000 BKN090 10/02 Q1025


Station Type Date Time Source
SANT Decoded METAR 2021/09/16 11:00 UTC NOAA

Tucuman Aerodrome, Argentina (SANT) 26-51S 065-06W 450M
Sep 16, 2021 - 07:00 AM EDT / 2021.09.16 1100 UTC
Wind: from the N (360 degrees) at 6 MPH (5 KT):0
Visibility: 3 mile(s):0
Sky conditions: mostly cloudy
Temperature: 50 F (10 C)
Dew Point: 35 F (2 C)
Relative Humidity: 57%
Pressure (altimeter): 30.27 in. Hg (1025 hPa)
ob: SANT 161100Z 36005KT 6000 BKN090 10/02 Q1025
cycle: 11

Station Type Date Time Source
SANT TAF 2021/09/16 12:15 UTC NOAA

TAF TAF SANT 161100Z 1612/1712 32005KT 7000 FU NSC TX27/1618Z TN10/1710Z
BECMG 1613/1616 VRB03KT 5000 FU
BECMG 1619/1621 05010KT 8000 FU SCT060
BECMG 1701/1704 36005KT

Example: see airport list